createdAt,value
2023-03-04T00:00:02.380Z,102685.63
2023-03-04T00:02:29.767Z,102683.06
2023-03-04T00:04:57.149Z,102685.88
2023-03-04T00:07:24.623Z,102688.97
2023-03-04T00:09:52.032Z,102690.66
2023-03-04T00:12:19.444Z,102681.13
2023-03-04T00:14:46.846Z,102686.94
2023-03-04T00:17:14.263Z,102692.69
2023-03-04T00:19:41.701Z,102688.41
2023-03-04T00:22:09.143Z,102686.16
2023-03-04T00:24:36.603Z,102686.44
2023-03-04T00:27:04.006Z,102691.09
2023-03-04T00:29:31.432Z,102695.00
2023-03-04T00:31:58.958Z,102688.59
2023-03-04T00:34:26.447Z,102695.44
2023-03-04T00:36:53.844Z,102687.00
2023-03-04T00:39:21.235Z,102688.75
2023-03-04T00:41:48.577Z,102693.47
2023-03-04T00:44:16.160Z,102693.78
2023-03-04T00:46:43.538Z,102691.19
2023-03-04T00:49:10.983Z,102688.19
2023-03-04T00:51:38.441Z,102686.31
2023-03-04T00:54:05.824Z,102698.22
2023-03-04T00:56:33.272Z,102697.88
2023-03-04T00:59:00.716Z,102697.19
2023-03-04T01:01:28.192Z,102691.34
2023-03-04T01:03:55.682Z,102688.34
2023-03-04T01:06:23.073Z,102695.34
2023-03-04T01:08:50.501Z,102690.66
2023-03-04T01:11:17.892Z,102690.34
2023-03-04T01:13:45.260Z,102695.22
2023-03-04T01:16:12.993Z,102699.97
2023-03-04T01:18:40.470Z,102691.91
2023-03-04T01:21:07.893Z,102694.66
2023-03-04T01:23:35.373Z,102685.16
2023-03-04T01:26:02.899Z,102686.31
2023-03-04T01:28:30.340Z,102681.53
2023-03-04T01:30:57.775Z,102685.66
2023-03-04T01:33:25.208Z,102677.81
2023-03-04T01:35:52.674Z,102669.00
2023-03-04T01:38:20.074Z,102665.41
2023-03-04T01:40:49.179Z,102663.16
2023-03-04T01:43:20.263Z,102663.81
2023-03-04T01:45:48.641Z,102655.19
2023-03-04T01:48:18.039Z,102655.78
2023-03-04T01:50:45.480Z,102656.97
2023-03-04T01:53:20.773Z,102654.25
2023-03-04T01:55:48.923Z,102652.78
2023-03-04T01:58:16.867Z,102643.66
2023-03-04T02:00:44.668Z,102645.00
2023-03-04T02:03:13.714Z,102635.72
2023-03-04T02:05:43.072Z,102639.75
2023-03-04T02:08:10.611Z,102640.03
2023-03-04T02:10:38.526Z,102633.91
2023-03-04T02:13:06.029Z,102634.22
2023-03-04T02:15:33.485Z,102623.31
2023-03-04T02:18:01.261Z,102623.78
2023-03-04T02:20:31.689Z,102626.56
2023-03-04T02:23:04.133Z,102613.94
2023-03-04T02:25:34.459Z,102621.75
2023-03-04T02:28:02.308Z,102611.91
2023-03-04T02:30:29.849Z,102612.91
2023-03-04T02:32:57.289Z,102606.47
2023-03-04T02:35:24.822Z,102605.72
2023-03-04T02:37:52.260Z,102609.69
2023-03-04T02:40:24.209Z,102605.44
2023-03-04T02:42:51.655Z,102594.31
2023-03-04T02:45:36.682Z,102592.09
2023-03-04T02:48:04.660Z,102591.16
2023-03-04T02:50:34.649Z,102588.84
2023-03-04T02:53:02.092Z,102591.91
2023-03-04T02:55:29.624Z,102594.84
2023-03-04T02:57:57.051Z,102581.03
2023-03-04T03:00:24.455Z,102595.69
2023-03-04T03:02:51.969Z,102592.81
2023-03-04T03:05:19.597Z,102597.97
2023-03-04T03:07:47.198Z,102594.00
2023-03-04T03:10:14.631Z,102595.75
2023-03-04T03:12:42.111Z,102580.50
2023-03-04T03:15:09.847Z,102585.09
2023-03-04T03:17:37.300Z,102580.66
2023-03-04T03:20:05.377Z,102571.50
2023-03-04T03:22:32.904Z,102579.63
2023-03-04T03:25:00.343Z,102577.22
2023-03-04T03:27:27.827Z,102572.78
2023-03-04T03:29:55.245Z,102574.09
2023-03-04T03:32:22.726Z,102572.81
2023-03-04T03:34:50.173Z,102565.72
2023-03-04T03:37:17.574Z,102572.03
2023-03-04T03:39:45.012Z,102563.44
2023-03-04T03:42:12.371Z,102566.06
2023-03-04T03:44:39.746Z,102574.00
2023-03-04T03:47:07.187Z,102565.88
2023-03-04T03:49:34.593Z,102567.97
2023-03-04T03:52:02.088Z,102569.19
2023-03-04T03:54:29.470Z,102568.53
2023-03-04T03:56:56.841Z,102571.13
2023-03-04T03:59:24.704Z,102572.81
2023-03-04T04:01:52.192Z,102574.59
2023-03-04T04:04:19.702Z,102568.81
2023-03-04T04:06:47.097Z,102568.13
2023-03-04T04:09:14.537Z,102569.03
2023-03-04T04:11:41.962Z,102579.28
2023-03-04T04:14:10.500Z,102586.34
2023-03-04T04:16:37.982Z,102579.53
2023-03-04T04:19:05.470Z,102582.50
2023-03-04T04:21:32.852Z,102576.94
2023-03-04T04:24:00.309Z,102587.81
2023-03-04T04:26:27.744Z,102586.06
2023-03-04T04:28:55.203Z,102572.03
2023-03-04T04:31:22.586Z,102589.06
2023-03-04T04:33:50.043Z,102585.31
2023-03-04T04:36:17.561Z,102581.25
2023-03-04T04:38:45.199Z,102571.25
2023-03-04T04:41:32.870Z,102586.78
2023-03-04T04:44:00.312Z,102586.44
2023-03-04T04:46:28.206Z,102585.94
2023-03-04T04:48:55.894Z,102588.13
2023-03-04T04:51:23.348Z,102593.59
2023-03-04T04:53:50.798Z,102582.63
2023-03-04T04:56:20.145Z,102583.22
2023-03-04T04:58:48.084Z,102574.97
2023-03-04T05:01:16.193Z,102571.06
2023-03-04T05:03:43.934Z,102577.16
2023-03-04T05:06:12.515Z,102573.91
2023-03-04T05:08:40.162Z,102575.72
2023-03-04T05:11:08.120Z,102586.53
2023-03-04T05:13:35.836Z,102578.72
2023-03-04T05:16:03.373Z,102583.09
2023-03-04T05:18:30.942Z,102581.16
2023-03-04T05:20:59.764Z,102583.06
2023-03-04T05:23:28.020Z,102571.34
2023-03-04T05:25:55.550Z,102582.09
2023-03-04T05:28:23.057Z,102588.84
2023-03-04T05:30:50.555Z,102580.31
2023-03-04T05:33:18.601Z,102585.97
2023-03-04T05:35:48.326Z,102591.91
2023-03-04T05:38:17.288Z,102591.13
2023-03-04T05:40:44.680Z,102593.44
2023-03-04T05:43:12.185Z,102596.41
2023-03-04T05:45:39.621Z,102594.00
2023-03-04T05:48:07.866Z,102583.13
2023-03-04T05:50:35.554Z,102586.84
2023-03-04T05:53:03.299Z,102580.53
2023-03-04T05:55:30.967Z,102579.97
2023-03-04T05:57:58.452Z,102592.41
2023-03-04T06:00:26.552Z,102591.88
2023-03-04T06:02:54.344Z,102587.78
2023-03-04T06:05:22.119Z,102589.16
2023-03-04T06:07:49.542Z,102579.00
2023-03-04T06:10:18.062Z,102587.16
2023-03-04T06:12:45.508Z,102586.28
2023-03-04T06:15:13.369Z,102583.78
2023-03-04T06:17:42.220Z,102583.00
2023-03-04T06:20:10.450Z,102570.97
2023-03-04T06:22:37.838Z,102581.16
2023-03-04T06:25:05.428Z,102584.97
2023-03-04T06:27:32.870Z,102583.75
2023-03-04T06:30:01.741Z,102580.94
2023-03-04T06:32:29.404Z,102579.34
2023-03-04T06:34:56.859Z,102578.47
2023-03-04T06:37:24.391Z,102582.53
2023-03-04T06:39:51.815Z,102582.09
2023-03-04T06:42:19.423Z,102588.94
2023-03-04T06:44:46.898Z,102575.44
2023-03-04T06:47:14.845Z,102578.19
2023-03-04T06:49:42.443Z,102587.00
2023-03-04T06:52:11.226Z,102584.22
2023-03-04T06:54:38.668Z,102584.59
2023-03-04T06:57:06.493Z,102591.16
2023-03-04T06:59:34.261Z,102590.16
2023-03-04T07:02:01.838Z,102603.56
2023-03-04T07:04:29.264Z,102589.56
2023-03-04T07:06:56.670Z,102602.47
2023-03-04T07:09:24.065Z,102602.16
2023-03-04T07:11:51.515Z,102602.31
2023-03-04T07:14:18.886Z,102604.41
2023-03-04T07:16:46.290Z,102601.06
2023-03-04T07:19:13.739Z,102609.22
2023-03-04T07:21:41.177Z,102613.81
2023-03-04T07:24:08.613Z,102613.19
2023-03-04T07:26:37.814Z,102607.56
2023-03-04T07:29:05.457Z,102607.63
2023-03-04T07:31:34.073Z,102611.75
2023-03-04T07:34:02.973Z,102609.13
2023-03-04T07:36:30.518Z,102614.72
2023-03-04T07:38:58.500Z,102608.72
2023-03-04T07:41:27.802Z,102615.56
2023-03-04T07:43:56.756Z,102608.41
2023-03-04T07:46:24.627Z,102609.03
2023-03-04T07:48:52.167Z,102614.44
2023-03-04T07:51:20.994Z,102619.34
2023-03-04T07:53:49.988Z,102616.69
2023-03-04T07:56:19.113Z,102613.13
2023-03-04T07:58:46.752Z,102621.13
2023-03-04T08:01:15.634Z,102616.00
2023-03-04T08:03:43.420Z,102624.03
2023-03-04T08:06:12.439Z,102621.25
2023-03-04T08:08:40.059Z,102620.31
2023-03-04T08:11:08.808Z,102621.94
2023-03-04T08:13:36.630Z,102622.72
2023-03-04T08:16:04.474Z,102629.09
2023-03-04T08:18:32.188Z,102637.59
2023-03-04T08:20:59.649Z,102637.78
2023-03-04T08:23:27.228Z,102636.81
2023-03-04T08:25:54.775Z,102640.03
2023-03-04T08:28:22.326Z,102630.06
2023-03-04T08:30:53.951Z,102629.88
2023-03-04T08:33:21.502Z,102632.53
2023-03-04T08:35:48.996Z,102632.00
2023-03-04T08:38:16.547Z,102634.78
2023-03-04T08:40:44.083Z,102635.41
2023-03-04T08:43:11.526Z,102636.44
2023-03-04T08:45:38.975Z,102637.91
2023-03-04T08:48:06.441Z,102629.53
2023-03-04T08:50:33.919Z,102620.09
2023-03-04T08:53:01.342Z,102622.19
2023-03-04T08:55:28.748Z,102616.66
2023-03-04T08:57:56.208Z,102617.03
2023-03-04T09:00:23.895Z,102622.84
2023-03-04T09:02:51.403Z,102615.94
2023-03-04T09:05:18.890Z,102620.03
2023-03-04T09:07:46.324Z,102608.06
2023-03-04T09:10:14.327Z,102618.19
2023-03-04T09:12:41.820Z,102614.41
2023-03-04T09:15:11.870Z,102616.28
2023-03-04T09:17:40.317Z,102616.72
2023-03-04T09:20:09.961Z,102608.97
2023-03-04T09:22:38.317Z,102609.59
2023-03-04T09:25:09.721Z,102619.44
2023-03-04T09:27:38.998Z,102617.78
2023-03-04T09:30:06.728Z,102603.72
2023-03-04T09:32:34.354Z,102615.03
2023-03-04T09:35:01.804Z,102608.75
2023-03-04T09:37:29.304Z,102618.91
2023-03-04T09:39:56.770Z,102616.88
2023-03-04T09:42:47.636Z,102613.88
2023-03-04T09:45:18.544Z,102599.47
2023-03-04T09:47:47.212Z,102605.25
2023-03-04T09:50:14.750Z,102606.16
2023-03-04T09:52:44.935Z,102605.84
2023-03-04T09:55:39.114Z,102606.88
2023-03-04T09:58:15.705Z,102612.69
2023-03-04T10:00:45.337Z,102607.75
2023-03-04T10:03:18.210Z,102604.56
2023-03-04T10:05:45.750Z,102603.41
2023-03-04T10:08:28.164Z,102607.78
2023-03-04T10:10:57.552Z,102611.16
2023-03-04T10:13:32.172Z,102603.41
2023-03-04T10:16:00.551Z,102593.38
2023-03-04T10:18:35.513Z,102594.50
2023-03-04T10:21:05.562Z,102588.09
2023-03-04T10:23:34.774Z,102594.63
2023-03-04T10:26:11.861Z,102579.47
2023-03-04T10:28:39.596Z,102585.97
2023-03-04T10:31:09.815Z,102581.69
2023-03-04T10:33:38.820Z,102578.31
2023-03-04T10:36:12.212Z,102585.97
2023-03-04T10:38:41.206Z,102584.19
2023-03-04T10:41:15.885Z,102579.16
2023-03-04T10:43:45.246Z,102588.50
2023-03-04T10:46:13.095Z,102583.44
2023-03-04T10:48:42.139Z,102582.22
2023-03-04T10:51:13.007Z,102590.00
2023-03-04T10:53:44.232Z,102602.66
2023-03-04T10:56:30.566Z,102596.16
2023-03-04T10:59:17.074Z,102598.81
2023-03-04T11:01:44.533Z,102593.59
2023-03-04T11:04:20.982Z,102589.63
2023-03-04T11:06:48.827Z,102582.06
2023-03-04T11:09:22.939Z,102577.91
2023-03-04T11:11:51.345Z,102577.84
2023-03-04T11:14:23.502Z,102566.38
2023-03-04T11:16:55.789Z,102565.34
2023-03-04T11:19:25.121Z,102560.88
2023-03-04T11:21:53.360Z,102559.13
2023-03-04T11:24:29.274Z,102562.59
2023-03-04T11:27:07.572Z,102562.19
2023-03-04T11:29:55.301Z,102555.53
2023-03-04T11:32:25.081Z,102570.25
2023-03-04T11:34:52.510Z,102567.91
2023-03-04T11:37:19.980Z,102566.63
2023-03-04T11:39:50.684Z,102569.84
2023-03-04T11:42:36.828Z,102577.44
2023-03-04T11:45:04.919Z,102568.59
2023-03-04T11:47:41.647Z,102565.28
2023-03-04T11:50:21.296Z,102571.16
2023-03-04T11:53:03.827Z,102561.84
2023-03-04T11:55:31.195Z,102561.78
2023-03-04T11:58:07.776Z,102561.38
2023-03-04T12:00:50.245Z,102552.53
2023-03-04T12:03:26.742Z,102549.38
2023-03-04T12:06:05.009Z,102532.16
2023-03-04T12:08:47.768Z,102535.56
2023-03-04T12:11:44.406Z,102533.53
2023-03-04T12:14:14.912Z,102534.66
2023-03-04T12:16:45.052Z,102540.97
2023-03-04T12:19:21.935Z,102528.88
2023-03-04T12:21:49.312Z,102531.09
2023-03-04T12:24:16.731Z,102540.94
2023-03-04T12:26:59.115Z,102540.88
2023-03-04T12:29:35.261Z,102541.25
2023-03-04T12:32:12.571Z,102541.56
2023-03-04T12:35:00.277Z,102546.53
2023-03-04T12:37:47.927Z,102550.41
2023-03-04T12:40:21.590Z,102540.63
2023-03-04T12:43:01.408Z,102533.38
2023-03-04T12:45:33.877Z,102522.03
2023-03-04T12:48:10.671Z,102520.88
2023-03-04T12:51:01.213Z,102517.19
2023-03-04T12:53:32.104Z,102514.72
2023-03-04T12:56:00.410Z,102509.53
2023-03-04T12:58:29.821Z,102507.34
2023-03-04T13:01:23.053Z,102492.34
2023-03-04T13:04:05.667Z,102488.13
2023-03-04T13:06:45.363Z,102497.53
2023-03-04T13:09:17.627Z,102493.34
2023-03-04T13:11:50.776Z,102479.38
2023-03-04T13:14:18.302Z,102489.50
2023-03-04T13:17:08.572Z,102473.97
2023-03-04T13:19:42.134Z,102490.38
2023-03-04T13:22:38.879Z,102483.72
2023-03-04T13:25:24.938Z,102476.84
2023-03-04T13:28:06.827Z,102479.19
2023-03-04T13:30:34.489Z,102494.50
2023-03-04T13:33:10.946Z,102479.09
2023-03-04T13:35:47.694Z,102483.91
2023-03-04T13:38:27.730Z,102479.13
2023-03-04T13:41:01.367Z,102472.41
2023-03-04T13:43:39.597Z,102469.28
2023-03-04T13:46:19.404Z,102477.84
2023-03-04T13:48:53.063Z,102461.56
2023-03-04T13:51:29.842Z,102472.50
2023-03-04T13:53:57.757Z,102455.31
2023-03-04T13:56:46.389Z,102460.75
2023-03-04T13:59:19.596Z,102462.41
2023-03-04T14:01:49.795Z,102463.66
2023-03-04T14:04:17.215Z,102455.25
2023-03-04T14:06:45.558Z,102462.22
2023-03-04T14:09:17.105Z,102456.81
2023-03-04T14:11:45.107Z,102456.03
2023-03-04T14:14:14.079Z,102456.63
2023-03-04T14:17:01.703Z,102461.00
2023-03-04T14:19:40.197Z,102457.50
2023-03-04T14:22:26.502Z,102454.97
2023-03-04T14:25:05.022Z,102454.91
2023-03-04T14:27:35.405Z,102448.38
2023-03-04T14:30:04.308Z,102446.00
2023-03-04T14:32:32.123Z,102445.75
2023-03-04T14:35:02.566Z,102455.81
2023-03-04T14:37:37.092Z,102438.06
2023-03-04T14:40:05.925Z,102440.34
2023-03-04T14:42:38.298Z,102431.72
2023-03-04T14:45:06.438Z,102444.25
2023-03-04T14:47:39.060Z,102433.16
2023-03-04T14:50:14.394Z,102426.50
2023-03-04T14:52:43.349Z,102432.59
2023-03-04T14:55:16.860Z,102368.50
2023-03-04T14:57:45.169Z,102424.94
2023-03-04T15:00:27.075Z,102429.50
2023-03-04T15:03:03.919Z,102427.50
2023-03-04T15:05:31.337Z,102429.78
2023-03-04T15:08:03.980Z,102427.00
2023-03-04T15:10:37.371Z,102422.91
2023-03-04T15:13:08.911Z,102429.31
2023-03-04T15:15:36.434Z,102426.22
2023-03-04T15:18:05.328Z,102422.94
2023-03-04T15:20:33.233Z,102422.69
2023-03-04T15:23:02.467Z,102430.19
2023-03-04T15:25:30.477Z,102421.34
2023-03-04T15:27:58.001Z,102426.25
2023-03-04T15:30:25.471Z,102420.31
2023-03-04T15:32:53.022Z,102423.22
2023-03-04T15:35:21.223Z,102411.78
2023-03-04T15:37:49.528Z,102411.53
2023-03-04T15:40:19.745Z,102414.69
2023-03-04T15:42:47.192Z,102414.59
2023-03-04T15:45:26.149Z,102408.75
2023-03-04T15:47:53.624Z,102411.44
2023-03-04T15:50:21.779Z,102407.59
2023-03-04T15:52:51.149Z,102404.50
2023-03-04T15:55:20.295Z,102394.84
2023-03-04T15:57:48.844Z,102400.47
2023-03-04T16:00:16.844Z,102398.38
2023-03-04T16:02:44.296Z,102397.47
2023-03-04T16:05:11.749Z,102402.31
2023-03-04T16:07:40.465Z,102398.41
2023-03-04T16:10:26.145Z,102393.13
2023-03-04T16:12:54.614Z,102393.34
2023-03-04T16:15:23.445Z,102386.53
2023-03-04T16:17:51.158Z,102384.69
2023-03-04T16:20:20.356Z,102388.94
2023-03-04T16:22:48.837Z,102384.03
2023-03-04T16:25:17.383Z,102387.88
2023-03-04T16:27:45.418Z,102383.63
2023-03-04T16:30:17.216Z,102387.34
2023-03-04T16:32:44.629Z,102386.69
2023-03-04T16:35:12.660Z,102382.81
2023-03-04T16:37:40.350Z,102385.81
2023-03-04T16:40:08.534Z,102376.06
2023-03-04T16:42:36.002Z,102370.34
2023-03-04T16:45:03.623Z,102383.94
2023-03-04T16:47:31.111Z,102384.34
2023-03-04T16:49:58.920Z,102380.47
2023-03-04T16:52:28.591Z,102378.31
2023-03-04T16:54:56.109Z,102385.22
2023-03-04T16:57:23.571Z,102382.91
2023-03-04T16:59:52.289Z,102379.44
2023-03-04T17:02:22.077Z,102376.56
2023-03-04T17:04:51.154Z,102376.47
2023-03-04T17:07:18.579Z,102373.38
2023-03-04T17:09:46.021Z,102381.09
2023-03-04T17:12:13.777Z,102376.09
2023-03-04T17:14:41.332Z,102372.84
2023-03-04T17:17:08.848Z,102375.19
2023-03-04T17:19:36.292Z,102377.09
2023-03-04T17:22:04.031Z,102384.13
2023-03-04T17:24:31.479Z,102383.34
2023-03-04T17:26:58.945Z,102385.09
2023-03-04T17:29:26.507Z,102383.34
2023-03-04T17:31:54.008Z,102384.81
2023-03-04T17:34:21.706Z,102394.16
2023-03-04T17:36:49.162Z,102386.81
2023-03-04T17:39:16.538Z,102393.22
2023-03-04T17:41:43.983Z,102401.13
2023-03-04T17:44:14.518Z,102401.50
2023-03-04T17:46:42.052Z,102410.47
2023-03-04T17:49:12.013Z,102406.00
2023-03-04T17:51:40.217Z,102400.16
2023-03-04T17:54:08.551Z,102408.94
2023-03-04T17:56:37.156Z,102409.13
2023-03-04T17:59:09.399Z,102407.81
2023-03-04T18:01:36.806Z,102409.84
2023-03-04T18:04:06.481Z,102411.31
2023-03-04T18:06:33.941Z,102411.69
2023-03-04T18:09:01.392Z,102420.59
2023-03-04T18:11:29.255Z,102407.84
2023-03-04T18:13:56.817Z,102419.00
2023-03-04T18:16:27.255Z,102422.72
2023-03-04T18:18:57.641Z,102427.84
2023-03-04T18:21:25.682Z,102422.91
2023-03-04T18:23:53.219Z,102424.69
2023-03-04T18:26:23.234Z,102421.84
2023-03-04T18:28:51.165Z,102426.38
2023-03-04T18:31:23.052Z,102431.25
2023-03-04T18:33:50.515Z,102417.72
2023-03-04T18:36:18.000Z,102414.34
2023-03-04T18:38:45.442Z,102418.97
2023-03-04T18:41:14.669Z,102414.19
2023-03-04T18:43:42.448Z,102412.47
2023-03-04T18:46:12.173Z,102412.44
2023-03-04T18:48:44.560Z,102406.31
2023-03-04T18:51:12.039Z,102409.13
2023-03-04T18:53:40.213Z,102404.72
2023-03-04T18:56:16.647Z,102413.47
2023-03-04T18:58:45.664Z,102416.16
2023-03-04T19:01:14.035Z,102413.34
2023-03-04T19:03:42.302Z,102412.81
2023-03-04T19:06:09.939Z,102410.78
2023-03-04T19:08:37.421Z,102407.16
2023-03-04T19:11:05.898Z,102403.63
2023-03-04T19:13:33.687Z,102401.03
2023-03-04T19:16:01.149Z,102406.16
2023-03-04T19:18:29.897Z,102402.94
2023-03-04T19:21:00.077Z,102399.84
2023-03-04T19:23:29.230Z,102404.22
2023-03-04T19:25:56.878Z,102397.44
2023-03-04T19:28:25.031Z,102398.47
2023-03-04T19:30:53.889Z,102386.03
2023-03-04T19:33:21.331Z,102390.09
2023-03-04T19:35:48.825Z,102389.53
2023-03-04T19:38:16.275Z,102391.44
2023-03-04T19:40:46.716Z,102392.06
2023-03-04T19:43:15.277Z,102392.84
2023-03-04T19:45:42.965Z,102392.41
2023-03-04T19:48:10.400Z,102395.44
2023-03-04T19:50:37.891Z,102389.78
2023-03-04T19:53:05.348Z,102391.31
2023-03-04T19:55:37.261Z,102392.94
2023-03-04T19:58:04.705Z,102392.22
2023-03-04T20:00:32.223Z,102389.31
2023-03-04T20:03:00.053Z,102396.09
2023-03-04T20:05:27.533Z,102397.25
2023-03-04T20:07:54.906Z,102406.53
2023-03-04T20:10:22.316Z,102402.31
2023-03-04T20:12:49.738Z,102404.63
2023-03-04T20:15:17.206Z,102406.31
2023-03-04T20:17:44.594Z,102400.69
2023-03-04T20:20:12.544Z,102404.69
2023-03-04T20:22:40.016Z,102401.34
2023-03-04T20:25:07.528Z,102403.59
2023-03-04T20:27:34.954Z,102400.44
2023-03-04T20:30:04.020Z,102415.00
2023-03-04T20:32:31.630Z,102410.22
2023-03-04T20:34:59.029Z,102404.09
2023-03-04T20:37:26.509Z,102407.47
2023-03-04T20:39:56.789Z,102405.50
2023-03-04T20:42:24.244Z,102406.53
2023-03-04T20:44:51.618Z,102405.81
2023-03-04T20:47:19.007Z,102394.66
2023-03-04T20:49:46.402Z,102403.25
2023-03-04T20:52:14.424Z,102397.69
2023-03-04T20:54:41.892Z,102398.03
2023-03-04T20:57:10.707Z,102390.81
2023-03-04T20:59:39.401Z,102392.22
2023-03-04T21:02:08.439Z,102384.88
2023-03-04T21:04:35.884Z,102388.97
2023-03-04T21:07:03.400Z,102389.72
2023-03-04T21:09:30.961Z,102387.97
2023-03-04T21:12:00.503Z,102387.44
2023-03-04T21:14:30.228Z,102378.34
2023-03-04T21:16:59.323Z,102381.28
2023-03-04T21:19:28.709Z,102381.53
2023-03-04T21:21:56.892Z,102374.50
2023-03-04T21:24:25.588Z,102376.41
2023-03-04T21:26:53.072Z,102376.38
2023-03-04T21:29:21.531Z,102370.81
2023-03-04T21:31:53.837Z,102374.25
2023-03-04T21:34:23.311Z,102362.38
2023-03-04T21:36:50.747Z,102358.94
2023-03-04T21:39:20.275Z,102367.47
2023-03-04T21:41:47.939Z,102361.19
2023-03-04T21:44:28.201Z,102373.22
2023-03-04T21:46:57.246Z,102362.50
2023-03-04T21:49:24.977Z,102359.31
2023-03-04T21:51:52.531Z,102370.53
2023-03-04T21:54:19.924Z,102366.09
2023-03-04T21:56:47.505Z,102359.06
2023-03-04T21:59:17.309Z,102367.66
2023-03-04T22:01:45.093Z,102356.69
2023-03-04T22:04:12.749Z,102364.25
2023-03-04T22:06:41.380Z,102360.22
2023-03-04T22:09:09.570Z,102355.88
2023-03-04T22:11:37.024Z,102357.84
2023-03-04T22:14:04.607Z,102350.81
2023-03-04T22:16:33.925Z,102354.00
2023-03-04T22:19:02.849Z,102358.22
2023-03-04T22:21:30.287Z,102348.50
2023-03-04T22:23:57.712Z,102345.22
2023-03-04T22:26:31.573Z,102343.69
2023-03-04T22:28:59.583Z,102340.53
2023-03-04T22:31:30.848Z,102346.50
2023-03-04T22:34:02.723Z,102341.69
2023-03-04T22:36:30.425Z,102345.06
2023-03-04T22:38:57.826Z,102344.91
2023-03-04T22:41:25.674Z,102340.09
2023-03-04T22:43:53.315Z,102338.03
2023-03-04T22:46:22.532Z,102337.53
2023-03-04T22:48:50.282Z,102346.19
2023-03-04T22:51:18.396Z,102332.34
2023-03-04T22:53:45.922Z,102328.63
2023-03-04T22:56:13.942Z,102338.25
2023-03-04T22:58:42.118Z,102336.31
2023-03-04T23:01:09.925Z,102339.16
2023-03-04T23:03:38.137Z,102323.66
2023-03-04T23:06:07.642Z,102335.84
2023-03-04T23:08:38.960Z,102325.84
2023-03-04T23:11:14.294Z,102323.53
2023-03-04T23:13:42.333Z,102313.16
2023-03-04T23:16:11.179Z,102312.06
2023-03-04T23:18:39.610Z,102300.31
2023-03-04T23:21:07.663Z,102300.84
2023-03-04T23:23:35.396Z,102290.97
2023-03-04T23:26:04.315Z,102290.00
2023-03-04T23:28:31.775Z,102293.16
2023-03-04T23:30:59.350Z,102292.00
2023-03-04T23:33:26.751Z,102296.88
2023-03-04T23:35:54.186Z,102288.88
2023-03-04T23:38:21.734Z,102283.13
2023-03-04T23:40:49.224Z,102284.81
2023-03-04T23:43:16.759Z,102288.59
2023-03-04T23:45:44.356Z,102279.50
2023-03-04T23:48:11.931Z,102279.84
2023-03-04T23:50:39.358Z,102282.44
2023-03-04T23:53:06.749Z,102280.00
2023-03-04T23:55:34.471Z,102275.03
2023-03-04T23:58:01.887Z,102268.94
